Time;durP1;ratioP1;P1;durP2;ratioP2;P2;SDS_P1;SDS_P2;PMS_P1;PMS_P2;Temp;Humidity;BMP_temperature;BMP_pressure;BME280_temperature;BME280_humidity;BME280_pressure;Samples;Min_cycle;Max_cycle;Signal;HPM_P1;HPM_P2
2023/10/17 00:00:28;;;;;;;2.65;1.33;;;8.40;75.40;;;;;;6276814;22;20082;-85
2023/10/17 00:02:54;;;;;;;2.50;1.50;;;8.40;75.40;;;;;;6275971;22;20016;-84
2023/10/17 00:05:21;;;;;;;2.97;1.48;;;8.40;75.50;;;;;;6276628;22;20376;-84
2023/10/17 00:07:47;;;;;;;2.75;1.27;;;8.40;75.50;;;;;;6276383;22;20015;-84
2023/10/17 00:10:17;;;;;;;2.30;1.00;;;8.40;75.50;;;;;;6249383;22;20050;-84
2023/10/17 00:12:45;;;;;;;1.88;1.20;;;8.40;75.40;;;;;;6249477;22;20383;-84
2023/10/17 00:15:24;;;;;;;2.22;1.20;;;8.40;75.30;;;;;;6276559;22;20011;-85
2023/10/17 00:17:50;;;;;;;2.22;1.00;;;8.40;75.30;;;;;;6249132;22;20055;-84
2023/10/17 00:20:18;;;;;;;1.70;1.20;;;8.40;75.30;;;;;;6249587;22;20385;-85
2023/10/17 00:22:43;;;;;;;2.13;1.08;;;8.30;75.30;;;;;;6249281;22;20393;-85
2023/10/17 00:25:10;;;;;;;2.10;1.25;;;8.30;75.30;;;;;;6276360;22;20015;-85
2023/10/17 00:27:35;;;;;;;3.40;1.50;;;8.30;75.30;;;;;;6249107;22;20016;-85
2023/10/17 00:30:01;;;;;;;2.53;1.30;;;8.30;75.30;;;;;;6276264;22;20019;-85
2023/10/17 00:32:31;;;;;;;2.10;1.20;;;8.30;75.20;;;;;;6223346;22;20416;-84
2023/10/17 00:34:57;;;;;;;2.25;1.38;;;8.30;75.10;;;;;;6248930;22;20007;-85
2023/10/17 00:37:30;;;;;;;1.95;1.02;;;8.20;75.00;;;;;;6275993;22;20023;-85
2023/10/17 00:39:56;;;;;;;2.42;1.10;;;8.20;74.80;;;;;;6276608;22;20361;-85
2023/10/17 00:42:29;;;;;;;1.95;1.05;;;8.20;74.80;;;;;;6223583;22;20050;-85
2023/10/17 00:44:55;;;;;;;3.58;1.25;;;8.20;75.00;;;;;;6276572;22;20079;-86
2023/10/17 00:47:22;;;;;;;1.88;1.10;;;8.20;75.10;;;;;;6248058;22;20367;-85
2023/10/17 00:49:50;;;;;;;1.63;1.13;;;8.20;75.20;;;;;;6276457;22;20321;-85
2023/10/17 00:52:22;;;;;;;1.98;1.30;;;8.20;75.30;;;;;;6276432;22;20420;-84
2023/10/17 00:54:50;;;;;;;3.00;1.50;;;8.20;75.30;;;;;;6248786;22;20069;-85
2023/10/17 00:57:19;;;;;;;2.85;1.20;;;8.20;75.30;;;;;;6248543;22;20015;-85
2023/10/17 00:59:53;;;;;;;2.70;1.13;;;8.20;75.20;;;;;;6223705;22;20345;-84
2023/10/17 01:02:25;;;;;;;3.28;1.30;;;8.20;75.20;;;;;;6248395;22;20087;-84
2023/10/17 01:04:59;;;;;;;1.52;0.90;;;8.20;75.10;;;;;;6276144;22;20020;-85
2023/10/17 01:07:29;;;;;;;1.90;1.42;;;8.20;75.10;;;;;;6276081;22;20007;-84
2023/10/17 01:09:55;;;;;;;3.67;1.88;;;8.20;75.10;;;;;;6248640;22;20057;-85
2023/10/17 01:12:27;;;;;;;1.77;1.10;;;8.20;75.00;;;;;;6248598;22;20015;-84
2023/10/17 01:14:56;;;;;;;2.20;1.00;;;8.20;74.90;;;;;;6248274;22;20011;-85
2023/10/17 01:17:24;;;;;;;1.65;1.27;;;8.10;74.80;;;;;;6248653;22;20008;-85
2023/10/17 01:19:53;;;;;;;1.73;1.20;;;8.10;74.60;;;;;;6248602;22;20018;-85
2023/10/17 01:22:20;;;;;;;2.95;1.33;;;8.10;74.50;;;;;;6276010;22;20026;-85
2023/10/17 01:24:45;;;;;;;2.05;1.10;;;8.10;74.50;;;;;;6275938;22;20046;-85
2023/10/17 01:27:13;;;;;;;1.67;1.10;;;8.10;74.60;;;;;;6248409;22;20015;-85
2023/10/17 01:29:41;;;;;;;2.63;1.40;;;8.10;74.80;;;;;;6247987;22;20503;-85
2023/10/17 01:32:09;;;;;;;3.60;1.10;;;8.10;74.90;;;;;;6248772;22;20043;-86
2023/10/17 01:34:36;;;;;;;1.77;1.10;;;8.10;75.00;;;;;;6276118;22;20012;-86
2023/10/17 01:37:03;;;;;;;2.85;1.20;;;8.10;75.10;;;;;;6248854;22;20093;-85
2023/10/17 01:39:29;;;;;;;3.63;1.48;;;8.10;75.00;;;;;;6275892;22;20429;-85
2023/10/17 01:41:55;;;;;;;2.78;1.35;;;8.10;75.00;;;;;;6248493;22;20011;-85
2023/10/17 01:44:21;;;;;;;1.77;1.10;;;8.10;74.90;;;;;;6275126;22;20070;-86
2023/10/17 01:46:46;;;;;;;3.35;1.50;;;8.10;74.90;;;;;;6248586;22;20019;-84
2023/10/17 01:49:13;;;;;;;2.20;1.50;;;8.10;74.90;;;;;;6248240;22;20011;-86
2023/10/17 01:51:49;;;;;;;1.88;1.33;;;8.10;74.80;;;;;;6248103;22;20093;-84
2023/10/17 01:54:16;;;;;;;3.15;1.30;;;8.00;74.70;;;;;;6248473;22;20022;-84
2023/10/17 01:56:47;;;;;;;2.30;1.20;;;8.00;74.90;;;;;;6222686;22;20011;-84
2023/10/17 01:59:17;;;;;;;3.45;1.23;;;8.00;74.80;;;;;;6247675;22;20007;-85
2023/10/17 02:01:43;;;;;;;2.75;1.50;;;8.00;74.90;;;;;;6275461;22;20011;-85
2023/10/17 02:04:16;;;;;;;2.80;1.17;;;8.00;74.80;;;;;;6247940;22;20042;-85
2023/10/17 02:06:47;;;;;;;2.38;1.02;;;8.00;74.80;;;;;;6275514;22;20328;-84
2023/10/17 02:09:46;;;;;;;3.03;1.58;;;8.00;74.80;;;;;;6275347;22;20444;-85
2023/10/17 02:12:05;;;;;;;3.35;1.63;;;8.00;74.80;;;;;;6242045;22;20076;-84
2023/10/17 02:14:31;;;;;;;1.83;1.20;;;8.00;74.50;;;;;;6274673;22;20016;-84
2023/10/17 02:16:59;;;;;;;2.10;1.10;;;7.90;74.40;;;;;;6248149;22;20016;-85
2023/10/17 02:19:31;;;;;;;3.38;1.17;;;7.90;74.50;;;;;;6275442;22;20011;-85
2023/10/17 02:22:01;;;;;;;1.77;1.15;;;7.90;74.50;;;;;;6248162;22;20007;-85
2023/10/17 02:24:29;;;;;;;1.92;1.25;;;7.90;74.50;;;;;;6247780;22;20008;-84
2023/10/17 02:26:55;;;;;;;2.80;1.88;;;7.90;74.40;;;;;;6247299;22;20019;-85
2023/10/17 02:29:26;;;;;;;3.45;1.33;;;7.90;74.40;;;;;;6248091;22;20019;-84
2023/10/17 02:31:53;;;;;;;3.75;1.30;;;7.90;74.40;;;;;;6248068;22;20012;-85
2023/10/17 02:34:22;;;;;;;1.98;1.05;;;7.90;74.40;;;;;;6247882;22;20015;-85
2023/10/17 02:36:52;;;;;;;3.00;1.20;;;7.90;74.30;;;;;;6275223;22;20007;-84
2023/10/17 02:39:20;;;;;;;2.00;0.95;;;7.90;74.30;;;;;;6275446;22;20014;-84
2023/10/17 02:41:46;;;;;;;1.38;1.00;;;7.90;74.20;;;;;;6274397;22;20061;-84
2023/10/17 02:44:18;;;;;;;3.05;1.10;;;7.80;74.00;;;;;;6247848;22;20310;-85
2023/10/17 02:46:44;;;;;;;2.17;1.00;;;7.80;74.00;;;;;;6275274;22;20040;-84
2023/10/17 02:49:10;;;;;;;1.73;1.20;;;7.80;74.10;;;;;;6275272;22;20042;-85
2023/10/17 02:51:36;;;;;;;2.35;0.95;;;7.80;74.10;;;;;;6247794;22;20095;-84
2023/10/17 02:54:05;;;;;;;3.33;1.23;;;7.80;74.00;;;;;;6274713;22;20016;-85
2023/10/17 02:56:38;;;;;;;2.15;1.20;;;7.80;74.00;;;;;;6246854;22;20454;-84
2023/10/17 02:59:07;;;;;;;2.50;1.00;;;7.70;74.00;;;;;;6247816;22;20008;-85
2023/10/17 03:01:37;;;;;;;2.45;1.13;;;7.70;73.80;;;;;;6222182;22;20015;-84
2023/10/17 03:04:08;;;;;;;1.60;0.90;;;7.70;73.90;;;;;;6247305;22;20345;-85
2023/10/17 03:06:37;;;;;;;1.80;0.90;;;7.70;74.00;;;;;;6247528;22;20047;-84
2023/10/17 03:14:23;;;;;;;1.70;1.25;;;7.70;74.10;;;;;;6275059;22;20067;-85
2023/10/17 03:16:52;;;;;;;3.25;1.20;;;7.60;74.00;;;;;;6275102;22;20086;-85
2023/10/17 03:19:25;;;;;;;2.03;1.13;;;7.60;74.00;;;;;;6247662;22;20022;-85
2023/10/17 03:21:55;;;;;;;2.30;1.63;;;7.60;74.00;;;;;;6247482;22;20043;-85
2023/10/17 03:24:28;;;;;;;3.95;1.10;;;7.60;73.80;;;;;;6247458;22;20023;-85
2023/10/17 03:27:03;;;;;;;2.97;1.67;;;7.60;73.80;;;;;;6246471;22;20016;-85
2023/10/17 03:29:29;;;;;;;;;;;7.50;73.80;;;;;;6248151;22;20288;-85
2023/10/17 03:32:04;;;;;;;7.22;1.33;;;7.50;73.90;;;;;;6274946;22;19915;-85
2023/10/17 03:34:35;;;;;;;2.67;1.65;;;7.50;74.10;;;;;;6247471;22;20433;-85
2023/10/17 03:37:47;;;;;;;2.00;1.40;;;7.50;73.90;;;;;;6247456;22;20019;-85
2023/10/17 03:39:56;;;;;;;5.55;1.50;;;7.50;73.80;;;;;;6234633;22;20446;-85
2023/10/17 03:42:41;;;;;;;1.85;1.17;;;7.50;73.90;;;;;;6274628;22;20008;-85
2023/10/17 03:45:43;;;;;;;;;;;7.50;73.80;;;;;;6275435;22;20008;-85
2023/10/17 03:48:04;;;;;;;1.98;1.10;;;7.40;73.80;;;;;;6241678;22;19926;-85
2023/10/17 03:53:15;;;;;;;1.70;1.13;;;7.40;74.00;;;;;;6247493;22;20050;-84
2023/10/17 03:55:43;;;;;;;3.58;1.15;;;7.40;74.00;;;;;;6246799;22;20015;-85
2023/10/17 03:58:24;;;;;;;2.33;1.33;;;7.40;74.00;;;;;;6247487;22;20445;-85
2023/10/17 04:00:58;;;;;;;1.77;1.10;;;7.40;74.00;;;;;;6247645;22;20011;-85
2023/10/17 04:03:30;;;;;;;2.83;1.30;;;7.40;74.10;;;;;;6247317;22;20012;-85
2023/10/17 04:06:02;;;;;;;3.13;1.55;;;7.30;74.10;;;;;;6247281;22;20011;-85
2023/10/17 04:08:34;;;;;;;3.08;1.40;;;7.40;74.00;;;;;;6273685;22;20429;-85
2023/10/17 04:11:25;;;;;;;2.00;1.20;;;7.30;73.90;;;;;;6247323;22;20038;-85
2023/10/17 04:13:56;;;;;;;1.73;1.10;;;7.30;74.00;;;;;;6247405;22;20015;-85
2023/10/17 04:16:34;;;;;;;2.65;1.00;;;7.30;74.10;;;;;;6274339;22;20381;-86
2023/10/17 04:19:01;;;;;;;2.38;1.15;;;7.30;74.20;;;;;;6247229;22;20018;-85
2023/10/17 04:21:31;;;;;;;2.10;1.20;;;7.30;74.20;;;;;;6247098;22;20007;-86
2023/10/17 04:24:01;;;;;;;1.85;1.20;;;7.30;74.30;;;;;;6273868;22;20074;-86
2023/10/17 04:26:27;;;;;;;2.30;1.52;;;7.30;74.30;;;;;;6274697;22;20083;-85
2023/10/17 04:29:00;;;;;;;1.80;1.20;;;7.30;74.30;;;;;;6247312;22;20011;-85
2023/10/17 04:31:28;;;;;;;2.63;1.33;;;7.30;74.20;;;;;;6274660;22;20015;-86
2023/10/17 04:34:07;;;;;;;2.60;1.55;;;7.30;74.10;;;;;;6247362;22;20020;-86
2023/10/17 04:36:36;;;;;;;1.95;1.20;;;7.30;73.70;;;;;;6273940;22;20445;-85
2023/10/17 04:39:11;;;;;;;2.55;1.10;;;7.20;73.30;;;;;;6275473;22;20016;-85
2023/10/17 04:44:23;;;;;;;2.17;1.20;;;7.20;73.30;;;;;;6249128;22;20022;-85
2023/10/17 04:46:50;;;;;;;2.92;1.33;;;7.20;73.30;;;;;;6223707;22;20047;-84
2023/10/17 04:49:20;;;;;;;2.13;1.30;;;7.20;73.40;;;;;;6248974;22;20083;-85
2023/10/17 04:51:52;;;;;;;1.70;0.90;;;7.10;73.40;;;;;;6249141;22;20372;-85
2023/10/17 04:57:04;;;;;;;1.63;1.00;;;7.10;73.30;;;;;;6248707;22;20019;-85
2023/10/17 06:18:49;;;;;;;2.13;1.45;;;6.70;74.60;;;;;;6275599;22;20050;-85
2023/10/17 06:21:35;;;;;;;3.97;1.80;;;6.70;74.60;;;;;;6248362;22;20046;-85
2023/10/17 06:24:06;;;;;;;2.67;1.40;;;6.70;74.70;;;;;;6223175;22;20413;-85
2023/10/17 06:26:48;;;;;;;2.53;1.48;;;6.70;74.70;;;;;;6248179;22;20092;-85
2023/10/17 06:34:14;;;;;;;2.28;1.50;;;6.70;74.60;;;;;;6247043;22;20016;-86
2023/10/17 06:36:41;;;;;;;4.30;1.70;;;6.70;74.70;;;;;;6247713;22;20027;-85
2023/10/17 06:39:15;;;;;;;3.95;2.10;;;6.70;74.90;;;;;;6248085;22;20042;-85
2023/10/17 06:41:41;;;;;;;4.22;2.20;;;6.70;75.00;;;;;;6247142;22;20026;-86
2023/10/17 06:44:10;;;;;;;3.42;1.90;;;6.70;75.00;;;;;;6247814;22;20012;-85
2023/10/17 06:46:48;;;;;;;5.90;2.40;;;6.80;75.20;;;;;;6274507;22;20008;-87
2023/10/17 06:52:19;;;;;;;5.05;2.38;;;6.70;75.40;;;;;;6247946;22;20012;-86
2023/10/17 06:54:58;;;;;;;5.85;2.65;;;6.70;75.80;;;;;;6247872;22;20016;-86
2023/10/17 06:57:33;;;;;;;3.85;2.25;;;6.70;76.00;;;;;;6247723;22;20011;-86
2023/10/17 07:00:16;;;;;;;4.75;3.05;;;6.70;76.50;;;;;;6219673;22;20094;-86
2023/10/17 07:02:48;;;;;;;4.25;2.65;;;6.70;76.70;;;;;;6238393;23;20375;-86
2023/10/17 07:05:14;;;;;;;4.05;2.70;;;6.70;76.90;;;;;;6191852;23;20004;-86
2023/10/17 07:07:41;;;;;;;6.50;3.00;;;6.70;77.30;;;;;;6216891;23;20008;-87
2023/10/17 07:10:24;;;;;;;6.40;3.13;;;6.70;77.60;;;;;;6216883;23;20020;-87
2023/10/17 07:13:27;;;;;;;4.50;2.65;;;6.70;77.90;;;;;;6191973;23;20051;-87
2023/10/17 07:15:54;;;;;;;4.35;2.72;;;6.70;78.20;;;;;;6216623;23;20016;-86
2023/10/17 07:23:42;;;;;;;;;;;6.70;78.80;;;;;;6217083;23;20023;-87
2023/10/17 07:26:11;;;;;;;3.92;2.30;;;6.70;78.80;;;;;;6191887;23;20325;-87
2023/10/17 07:28:42;;;;;;;7.47;3.10;;;6.70;78.90;;;;;;6191912;23;20016;-87
2023/10/17 07:31:11;;;;;;;4.10;2.70;;;6.70;79.30;;;;;;6216930;23;20008;-87
2023/10/17 07:33:38;;;;;;;5.05;2.58;;;6.70;79.50;;;;;;6216247;23;20326;-87
2023/10/17 07:36:06;;;;;;;8.25;3.38;;;6.70;79.80;;;;;;6191782;23;20459;-87
2023/10/17 07:38:31;;;;;;;6.93;4.05;;;6.70;80.10;;;;;;6191739;23;20110;-86
2023/10/17 07:41:12;;;;;;;8.98;4.00;;;6.80;80.60;;;;;;6217079;23;20458;-87
2023/10/17 07:43:42;;;;;;;8.25;3.90;;;7.00;81.00;;;;;;6216611;23;20012;-87
2023/10/17 07:46:15;;;;;;;11.20;4.53;;;6.80;81.20;;;;;;6216243;23;20008;-87
2023/10/17 07:48:46;;;;;;;9.82;4.50;;;6.90;81.60;;;;;;6216824;23;20039;-87
2023/10/17 07:51:14;;;;;;;7.07;4.05;;;6.90;82.30;;;;;;6217347;23;20034;-88
2023/10/17 07:53:45;;;;;;;9.25;4.30;;;7.00;82.40;;;;;;6216960;23;20019;-89
2023/10/17 07:56:21;;;;;;;7.57;4.53;;;7.00;82.80;;;;;;6217057;23;20016;-88
2023/10/17 07:58:57;;;;;;;9.10;5.57;;;7.10;83.30;;;;;;6217426;23;20054;-89
2023/10/17 08:01:32;;;;;;;9.32;5.15;;;7.20;83.60;;;;;;6216723;23;20008;-88
2023/10/17 08:04:13;;;;;;;9.27;5.05;;;7.30;83.90;;;;;;6215879;22;20375;-88
2023/10/17 08:06:42;;;;;;;9.90;4.70;;;7.40;84.20;;;;;;6222842;22;20022;-89
2023/10/17 08:09:24;;;;;;;9.68;4.88;;;7.60;84.60;;;;;;6222917;22;20043;-88
2023/10/17 08:11:54;;;;;;;8.73;4.40;;;7.70;85.20;;;;;;6222843;22;20092;-90
2023/10/17 08:14:31;;;;;;;6.95;3.88;;;7.90;85.40;;;;;;6250060;22;20016;-90
2023/10/17 08:16:58;;;;;;;6.13;3.67;;;8.00;85.30;;;;;;6250416;22;20337;-90
2023/10/17 08:19:29;;;;;;;9.45;4.00;;;8.20;84.90;;;;;;6225173;22;20007;-90
2023/10/17 08:22:09;;;;;;;8.02;3.97;;;8.40;84.60;;;;;;6225321;22;20090;-89
2023/10/17 08:24:40;;;;;;;8.02;3.45;;;8.50;84.30;;;;;;6250431;22;20008;-87
2023/10/17 08:32:55;;;;;;;8.32;3.00;;;9.20;83.80;;;;;;6250187;22;20384;-88
2023/10/17 08:35:26;;;;;;;7.13;2.53;;;9.50;83.00;;;;;;6224631;22;20082;-87
2023/10/17 08:37:52;;;;;;;5.25;2.83;;;9.70;81.50;;;;;;6250118;22;20007;-88
2023/10/17 08:43:14;;;;;;;10.23;2.50;;;10.00;78.50;;;;;;6277537;22;20011;-88
2023/10/17 08:45:41;;;;;;;6.25;2.55;;;10.20;76.90;;;;;;6276990;22;20020;-88
2023/10/17 08:48:11;;;;;;;6.45;2.63;;;10.30;76.30;;;;;;6277830;22;20019;-89
2023/10/17 08:50:40;;;;;;;4.90;2.42;;;10.40;75.30;;;;;;6250768;22;20090;-87
2023/10/17 08:53:13;;;;;;;4.05;2.30;;;10.40;74.80;;;;;;6250245;22;20018;-88
2023/10/17 08:55:40;;;;;;;5.68;2.40;;;10.40;74.70;;;;;;6252981;22;20011;-88
2023/10/17 08:58:08;;;;;;;4.38;2.10;;;10.50;74.50;;;;;;6251276;22;20026;-91
2023/10/17 09:03:35;;;;;;;7.25;2.42;;;10.70;73.40;;;;;;6236066;23;20028;-91
2023/10/17 09:11:08;;;;;;;8.25;2.58;;;10.90;70.90;;;;;;6247129;23;20576;-92
2023/10/17 09:16:15;;;;;;;4.13;2.00;;;11.00;68.40;;;;;;6246384;23;20021;-92
2023/10/17 09:18:48;;;;;;;5.70;1.65;;;11.10;68.30;;;;;;6246525;23;20014;-89
2023/10/17 09:21:16;;;;;;;4.03;1.70;;;11.00;67.50;;;;;;6219564;23;20043;-91
2023/10/17 09:23:42;;;;;;;5.65;2.10;;;11.10;67.80;;;;;;6219263;23;20012;-90
2023/10/17 09:26:12;;;;;;;3.95;2.10;;;11.20;67.30;;;;;;6245978;23;20311;-89
2023/10/17 09:28:41;;;;;;;6.13;2.10;;;11.20;67.20;;;;;;6219158;23;20020;-89
2023/10/17 09:31:08;;;;;;;3.53;1.77;;;11.20;67.40;;;;;;6219354;23;20020;-90
2023/10/17 09:33:45;;;;;;;4.20;2.03;;;11.30;67.40;;;;;;6219039;23;20069;-87
2023/10/17 09:36:12;;;;;;;5.72;1.73;;;11.30;67.20;;;;;;6246374;23;20028;-90
2023/10/17 09:38:43;;;;;;;5.22;1.90;;;11.40;67.40;;;;;;6246722;23;20008;-91
2023/10/17 09:41:11;;;;;;;6.10;2.63;;;11.50;66.10;;;;;;6219468;23;20448;-91
2023/10/17 09:43:37;;;;;;;6.03;1.58;;;11.50;65.40;;;;;;6219058;23;20008;-88
2023/10/17 09:46:09;;;;;;;4.05;1.20;;;11.50;65.40;;;;;;6245941;23;20023;-90
2023/10/17 09:48:36;;;;;;;2.58;1.20;;;11.80;64.90;;;;;;6246464;23;20051;-93
2023/10/17 09:51:03;;;;;;;2.72;1.45;;;11.70;63.50;;;;;;6219146;23;20008;-93
2023/10/17 09:53:32;;;;;;;5.07;1.17;;;11.60;62.90;;;;;;6218826;23;20040;-91
2023/10/17 09:56:11;;;;;;;4.18;1.30;;;11.70;61.90;;;;;;6246647;23;20008;-93
2023/10/17 09:58:40;;;;;;;2.20;0.95;;;11.70;61.50;;;;;;6219008;23;20016;-91
2023/10/17 10:01:13;;;;;;;2.65;1.38;;;11.70;62.30;;;;;;6246678;23;20083;-91
2023/10/17 10:03:40;;;;;;;3.20;1.23;;;11.80;62.40;;;;;;6264624;22;20020;-90
2023/10/17 10:06:23;;;;;;;3.72;1.33;;;11.80;62.50;;;;;;6247260;22;20019;-90
2023/10/17 10:08:54;;;;;;;4.65;1.20;;;11.90;62.30;;;;;;6247622;22;20042;-90
2023/10/17 10:11:20;;;;;;;4.03;1.33;;;11.90;62.20;;;;;;6247671;22;20011;-94
2023/10/17 10:14:11;;;;;;;4.82;1.20;;;12.00;60.80;;;;;;6248538;22;20377;-95
2023/10/17 10:16:54;;;;;;;2.90;0.95;;;12.00;58.60;;;;;;6222569;22;20015;-92
2023/10/17 10:19:21;;;;;;;2.03;1.00;;;12.00;59.10;;;;;;6274342;22;20179;-90
2023/10/17 10:21:58;;;;;;;3.70;1.02;;;12.00;59.60;;;;;;6251129;22;20007;-88
2023/10/17 10:24:33;;;;;;;3.33;1.00;;;12.00;59.00;;;;;;6248878;22;20350;-90
2023/10/17 10:27:14;;;;;;;3.88;1.20;;;12.10;59.50;;;;;;6223050;22;20043;-89
2023/10/17 10:29:40;;;;;;;7.15;1.52;;;12.10;59.70;;;;;;6249286;22;20011;-90
2023/10/17 10:32:37;;;;;;;4.35;1.38;;;12.10;59.40;;;;;;6249210;22;20038;-89
2023/10/17 10:35:05;;;;;;;2.53;0.90;;;12.20;58.80;;;;;;6248793;22;20516;-90
2023/10/17 10:37:54;;;;;;;3.65;1.30;;;12.20;58.40;;;;;;6248899;22;20018;-89
2023/10/17 10:40:24;;;;;;;5.53;1.88;;;12.20;58.20;;;;;;6223228;22;20012;-89
2023/10/17 10:43:00;;;;;;;4.78;2.10;;;12.20;58.30;;;;;;6248818;22;20078;-89
2023/10/17 10:45:42;;;;;;;3.65;1.20;;;12.20;58.70;;;;;;6248874;22;20015;-90
2023/10/17 10:48:18;;;;;;;2.92;1.00;;;12.30;58.90;;;;;;6248747;22;20026;-89
2023/10/17 10:50:45;;;;;;;4.30;0.90;;;12.30;57.90;;;;;;6249006;22;20016;-89
2023/10/17 10:53:32;;;;;;;5.22;1.20;;;12.30;58.10;;;;;;6276577;22;20007;-89
2023/10/17 10:56:02;;;;;;;3.25;0.80;;;12.40;57.40;;;;;;6275978;22;20012;-88
2023/10/17 10:58:34;;;;;;;3.03;0.88;;;12.40;58.20;;;;;;6276258;22;20023;-89
2023/10/17 11:01:02;;;;;;;4.30;0.80;;;12.50;58.40;;;;;;6276335;22;20008;-89
2023/10/17 11:03:30;;;;;;;3.92;1.08;;;12.40;58.00;;;;;;6275592;22;20306;-89
2023/10/17 11:06:04;;;;;;;2.65;1.00;;;12.50;57.50;;;;;;6254177;22;20015;-89
2023/10/17 11:08:43;;;;;;;3.67;1.17;;;12.50;57.30;;;;;;6276131;22;20012;-90
2023/10/17 11:11:19;;;;;;;6.35;1.05;;;12.50;57.40;;;;;;6248716;22;20445;-89
2023/10/17 11:13:46;;;;;;;3.13;0.57;;;12.50;57.70;;;;;;6251041;22;20430;-86
2023/10/17 11:16:14;;;;;;;3.92;1.38;;;12.50;57.70;;;;;;6253863;22;20018;-87
2023/10/17 11:18:43;;;;;;;4.72;0.80;;;12.50;57.30;;;;;;6280753;22;20018;-89
2023/10/17 11:21:10;;;;;;;3.20;0.63;;;12.50;57.10;;;;;;6277121;22;20014;-88
2023/10/17 11:23:47;;;;;;;2.60;0.70;;;12.60;56.80;;;;;;6249402;22;20087;-89
2023/10/17 11:26:14;;;;;;;4.30;0.68;;;12.50;56.40;;;;;;6252582;22;20063;-89
2023/10/17 11:28:46;;;;;;;2.03;0.70;;;12.50;56.90;;;;;;6248644;22;20015;-88
2023/10/17 11:31:21;;;;;;;5.00;0.82;;;12.60;57.00;;;;;;6248662;22;20011;-88
2023/10/17 11:33:56;;;;;;;2.92;0.70;;;12.60;56.90;;;;;;6275684;22;20007;-89
2023/10/17 11:36:25;;;;;;;;;;;12.60;56.60;;;;;;6224114;22;20016;-88
2023/10/17 11:38:58;;;;;;;1.52;0.70;;;12.60;56.90;;;;;;6248064;22;19922;-90
2023/10/17 11:41:30;;;;;;;4.32;0.63;;;12.60;56.90;;;;;;6248695;22;20047;-89
2023/10/17 11:44:04;;;;;;;3.58;1.00;;;12.60;57.20;;;;;;6276230;22;20011;-89
2023/10/17 11:46:39;;;;;;;3.67;1.40;;;12.60;56.70;;;;;;6249325;22;20008;-88
2023/10/17 11:49:20;;;;;;;1.63;0.60;;;12.70;56.80;;;;;;6250429;22;20031;-89
2023/10/17 11:51:59;;;;;;;3.40;0.70;;;12.70;56.60;;;;;;6251023;22;20022;-89
2023/10/17 11:54:25;;;;;;;4.10;0.75;;;12.60;56.90;;;;;;6277766;22;20008;-89
2023/10/17 11:56:51;;;;;;;2.70;1.05;;;12.60;56.90;;;;;;6251017;22;20066;-90
2023/10/17 11:59:19;;;;;;;5.05;0.90;;;12.60;57.10;;;;;;6250607;22;20015;-88
2023/10/17 12:01:46;;;;;;;3.28;0.70;;;12.60;57.00;;;;;;6250730;22;20015;-89
2023/10/17 12:04:16;;;;;;;2.17;0.50;;;12.60;56.70;;;;;;6250680;22;20023;-88
2023/10/17 12:06:44;;;;;;;3.03;0.93;;;12.60;56.60;;;;;;6277836;22;20008;-88
2023/10/17 12:11:50;;;;;;;3.63;0.80;;;12.70;56.40;;;;;;6278016;22;20079;-89
2023/10/17 12:14:23;;;;;;;2.72;0.70;;;12.60;55.70;;;;;;6278348;22;20061;-89
2023/10/17 12:16:53;;;;;;;2.20;0.90;;;12.60;55.70;;;;;;6250687;22;20086;-89
2023/10/17 12:19:26;;;;;;;4.22;0.80;;;12.60;55.90;;;;;;6250642;22;20012;-88
2023/10/17 12:21:55;;;;;;;3.70;0.95;;;12.50;56.40;;;;;;6250152;22;20091;-89
2023/10/17 12:24:28;;;;;;;3.08;1.20;;;12.50;56.80;;;;;;6250279;22;20020;-87
2023/10/17 12:26:55;;;;;;;1.65;0.80;;;12.50;56.60;;;;;;6249969;22;20453;-89
2023/10/17 12:29:25;;;;;;;4.25;1.10;;;12.50;56.50;;;;;;6250567;22;20016;-89
2023/10/17 12:31:53;;;;;;;3.55;0.80;;;12.50;56.10;;;;;;6277734;22;20528;-90
2023/10/17 12:34:19;;;;;;;2.35;1.00;;;12.50;56.20;;;;;;6277486;22;20035;-90
2023/10/17 12:36:46;;;;;;;5.57;1.05;;;12.50;56.40;;;;;;6250323;22;20081;-88
2023/10/17 12:39:12;;;;;;;4.25;1.10;;;12.50;56.50;;;;;;6277453;22;20046;-87
2023/10/17 12:41:39;;;;;;;2.65;0.73;;;12.50;56.50;;;;;;6277303;22;20012;-89
2023/10/17 12:44:05;;;;;;;3.97;1.15;;;12.50;56.40;;;;;;6250484;22;20008;-89
2023/10/17 12:46:31;;;;;;;2.92;1.00;;;12.50;56.30;;;;;;6250393;22;20019;-88
2023/10/17 12:48:57;;;;;;;2.95;1.15;;;12.50;56.70;;;;;;6250625;22;20022;-89
2023/10/17 12:51:25;;;;;;;3.55;0.82;;;12.50;56.50;;;;;;6225157;22;20016;-86
2023/10/17 12:53:51;;;;;;;2.70;1.00;;;12.50;56.40;;;;;;6280118;22;20015;-89
2023/10/17 12:56:20;;;;;;;3.83;1.10;;;12.50;56.60;;;;;;6277087;22;20015;-88
2023/10/17 12:58:46;;;;;;;2.58;1.10;;;12.50;56.70;;;;;;6249796;22;20016;-90
2023/10/17 13:01:12;;;;;;;3.58;0.80;;;12.70;56.90;;;;;;6278191;22;20010;-88
2023/10/17 13:03:38;;;;;;;2.70;0.80;;;12.50;56.20;;;;;;6231317;23;20064;-90
2023/10/17 13:06:08;;;;;;;4.00;0.90;;;12.50;56.20;;;;;;6246225;23;20083;-91
2023/10/17 13:08:35;;;;;;;2.28;1.30;;;12.50;56.10;;;;;;6246615;23;20055;-89
2023/10/17 13:11:02;;;;;;;2.63;0.93;;;12.50;56.30;;;;;;6246600;23;20074;-89
2023/10/17 13:13:30;;;;;;;3.13;1.13;;;12.50;56.60;;;;;;6220285;23;20034;-90
2023/10/17 13:15:57;;;;;;;6.13;1.10;;;12.50;56.40;;;;;;6219703;23;20071;-88
2023/10/17 13:18:29;;;;;;;1.52;0.88;;;12.50;56.70;;;;;;6219628;23;20009;-90
2023/10/17 13:21:04;;;;;;;4.25;1.05;;;12.50;56.90;;;;;;6219416;23;20019;-90
2023/10/17 13:23:31;;;;;;;3.33;0.82;;;12.50;57.10;;;;;;6219657;23;20012;-90
2023/10/17 13:25:58;;;;;;;2.92;0.90;;;12.50;57.20;;;;;;6246487;23;20012;-90
2023/10/17 13:28:24;;;;;;;5.80;1.85;;;12.50;57.20;;;;;;6246622;23;20307;-90
2023/10/17 13:30:50;;;;;;;3.80;1.30;;;12.60;57.10;;;;;;6219815;23;20023;-90
2023/10/17 13:33:20;;;;;;;3.50;1.05;;;12.60;56.90;;;;;;6244837;23;20008;-90
2023/10/17 13:35:46;;;;;;;3.72;1.10;;;12.50;57.00;;;;;;6218998;23;20013;-89
2023/10/17 13:38:13;;;;;;;4.63;1.60;;;12.50;57.10;;;;;;6246495;23;20035;-90
2023/10/17 13:40:39;;;;;;;5.47;1.20;;;12.50;56.80;;;;;;6246493;23;20083;-88
2023/10/17 13:43:04;;;;;;;3.03;1.10;;;12.50;56.90;;;;;;6219875;23;20009;-90
2023/10/17 13:45:39;;;;;;;4.57;1.13;;;12.50;56.90;;;;;;6220141;23;20252;-89
2023/10/17 13:48:06;;;;;;;4.63;1.33;;;12.50;56.80;;;;;;6220671;23;20031;-89
2023/10/17 13:50:31;;;;;;;4.53;1.25;;;12.50;56.40;;;;;;6247118;23;20103;-89
2023/10/17 13:53:06;;;;;;;2.90;1.30;;;12.50;56.80;;;;;;6250003;23;20410;-90
2023/10/17 13:55:35;;;;;;;5.07;1.50;;;12.50;56.10;;;;;;6219782;23;20012;-89
2023/10/17 13:58:01;;;;;;;3.00;1.30;;;12.40;56.80;;;;;;6218795;23;20039;-90
2023/10/17 14:00:40;;;;;;;3.72;1.52;;;12.40;57.20;;;;;;6219226;23;20342;-90
2023/10/17 14:03:06;;;;;;;5.38;1.75;;;12.40;57.00;;;;;;6232008;22;20026;-91
2023/10/17 14:05:32;;;;;;;4.43;1.00;;;12.40;56.90;;;;;;6249409;22;20041;-89
2023/10/17 14:07:58;;;;;;;3.67;1.35;;;12.40;57.00;;;;;;6276756;22;20056;-90
2023/10/17 14:10:24;;;;;;;2.97;0.93;;;12.40;57.20;;;;;;6276611;22;20067;-89
2023/10/17 14:12:51;;;;;;;2.97;1.00;;;12.40;56.90;;;;;;6276458;22;20007;-89
2023/10/17 14:15:16;;;;;;;3.63;1.58;;;12.50;57.30;;;;;;6249530;22;20008;-89
2023/10/17 14:17:45;;;;;;;2.90;0.80;;;12.50;57.50;;;;;;6276146;22;20008;-89
2023/10/17 14:20:17;;;;;;;2.78;0.88;;;12.50;57.30;;;;;;6277112;22;20384;-89
2023/10/17 14:23:08;;;;;;;3.92;1.00;;;12.50;56.70;;;;;;6249533;22;20468;-89
2023/10/17 14:28:16;;;;;;;4.15;1.30;;;12.40;56.50;;;;;;6278190;22;20015;-88
2023/10/17 14:30:41;;;;;;;4.38;1.05;;;12.40;57.00;;;;;;6276404;22;20023;-88
2023/10/17 14:33:10;;;;;;;2.72;0.77;;;12.40;57.10;;;;;;6275946;22;20012;-89
2023/10/17 14:35:35;;;;;;;6.07;1.38;;;12.40;57.20;;;;;;6249097;22;20012;-89
2023/10/17 14:38:02;;;;;;;2.67;0.77;;;12.40;57.10;;;;;;6249345;22;20043;-89
2023/10/17 14:40:32;;;;;;;3.72;1.02;;;12.40;56.70;;;;;;6249773;22;20018;-87
2023/10/17 14:42:58;;;;;;;4.07;0.73;;;12.40;56.40;;;;;;6251185;22;20012;-88
2023/10/17 14:45:25;;;;;;;4.07;0.98;;;12.40;56.30;;;;;;6248821;22;20083;-88
2023/10/17 14:47:55;;;;;;;5.68;1.25;;;12.40;56.50;;;;;;6249030;22;20440;-88
2023/10/17 14:50:20;;;;;;;1.52;0.85;;;12.40;56.50;;;;;;6252682;22;20018;-88
2023/10/17 14:52:46;;;;;;;3.25;0.90;;;12.30;57.00;;;;;;6250429;22;20329;-88
2023/10/17 14:55:15;;;;;;;4.35;1.10;;;12.30;56.70;;;;;;6275842;22;20014;-87
2023/10/17 14:57:45;;;;;;;3.05;1.13;;;12.30;57.10;;;;;;6275639;22;20022;-88
2023/10/17 15:00:13;;;;;;;3.03;0.80;;;12.30;57.40;;;;;;6248678;22;20026;-88
2023/10/17 15:02:45;;;;;;;1.92;0.90;;;12.30;57.50;;;;;;6240013;23;20357;-87
2023/10/17 15:05:13;;;;;;;3.55;0.98;;;12.30;57.40;;;;;;6218039;23;20430;-88
2023/10/17 15:07:40;;;;;;;2.85;1.00;;;12.30;57.00;;;;;;6244895;23;20433;-88
2023/10/17 15:10:12;;;;;;;5.50;1.10;;;12.30;56.90;;;;;;6245124;23;20016;-88
2023/10/17 15:12:42;;;;;;;3.05;1.15;;;12.20;57.10;;;;;;6217925;23;20012;-88
2023/10/17 15:15:16;;;;;;;4.20;1.00;;;12.20;57.30;;;;;;6218117;23;20008;-88
2023/10/17 15:17:43;;;;;;;3.35;1.23;;;12.20;57.30;;;;;;6244355;23;20472;-88
2023/10/17 15:20:12;;;;;;;2.22;0.95;;;12.20;57.30;;;;;;6218385;23;20031;-92